createdAt,value
2019-03-12T00:03:06.536Z,4.47
2019-03-12T00:08:10.269Z,4.30
2019-03-12T00:13:13.935Z,3.97
2019-03-12T00:18:17.687Z,3.60
2019-03-12T00:23:21.394Z,4.13
2019-03-12T00:28:25.161Z,3.30
2019-03-12T00:33:28.940Z,3.90
2019-03-12T00:38:33.043Z,3.70
2019-03-12T00:43:36.794Z,3.63
2019-03-12T00:48:40.496Z,3.63
2019-03-12T00:53:44.173Z,4.00
2019-03-12T00:58:47.881Z,3.53
2019-03-12T01:03:51.652Z,3.50
2019-03-12T01:08:55.451Z,3.20
2019-03-12T01:13:59.140Z,4.00
2019-03-12T01:19:03.081Z,3.57
2019-03-12T01:24:07.008Z,3.43
2019-03-12T01:29:10.868Z,3.27
2019-03-12T01:34:14.849Z,3.70
2019-03-12T01:39:18.657Z,3.13
2019-03-12T01:44:22.357Z,3.40
2019-03-12T01:49:26.160Z,2.93
2019-03-12T01:54:29.999Z,2.60
2019-03-12T01:59:33.719Z,2.73
2019-03-12T02:04:37.446Z,2.63
2019-03-12T02:09:41.300Z,3.10
2019-03-12T02:14:45.025Z,2.57
2019-03-12T02:19:48.755Z,3.20
2019-03-12T02:24:53.211Z,2.97
2019-03-12T02:29:57.005Z,2.73
2019-03-12T02:35:00.961Z,2.57
2019-03-12T02:40:05.064Z,2.70
2019-03-12T02:45:08.932Z,3.17
2019-03-12T02:50:12.691Z,2.60
2019-03-12T02:55:16.723Z,2.70
2019-03-12T03:00:21.773Z,2.90
2019-03-12T03:05:25.450Z,2.63
2019-03-12T03:10:29.165Z,2.40
2019-03-12T03:15:40.529Z,2.90
2019-03-12T03:20:44.281Z,2.07
2019-03-12T03:25:48.019Z,3.20
2019-03-12T03:30:51.804Z,3.27
2019-03-12T03:35:55.584Z,2.57
2019-03-12T03:40:59.459Z,2.93
2019-03-12T03:46:03.228Z,2.50
2019-03-12T03:51:07.007Z,2.53
2019-03-12T03:56:10.736Z,2.30
2019-03-12T04:01:14.533Z,2.47
2019-03-12T04:06:18.264Z,2.63
2019-03-12T04:11:21.949Z,2.10
2019-03-12T04:16:25.642Z,2.30
2019-03-12T04:21:29.359Z,2.60
2019-03-12T04:26:33.472Z,2.67
2019-03-12T04:31:37.206Z,2.43
2019-03-12T04:36:40.948Z,2.70
2019-03-12T04:41:44.660Z,2.30
2019-03-12T04:46:48.467Z,2.20
2019-03-12T04:51:52.243Z,2.30
2019-03-12T04:56:55.969Z,2.37
2019-03-12T05:01:59.695Z,2.10
2019-03-12T05:07:03.562Z,2.70
2019-03-12T05:12:07.320Z,2.67
2019-03-12T05:17:36.173Z,2.70
2019-03-12T05:22:39.936Z,2.60
2019-03-12T05:27:43.806Z,3.23
2019-03-12T05:32:47.511Z,3.07
2019-03-12T05:37:51.300Z,2.93
2019-03-12T05:42:55.322Z,2.93
2019-03-12T05:47:59.083Z,3.10
2019-03-12T05:53:11.453Z,3.20
2019-03-12T05:58:15.310Z,3.40
2019-03-12T06:03:18.990Z,3.20
2019-03-12T06:08:27.083Z,3.10
2019-03-12T06:13:30.846Z,3.73
2019-03-12T06:18:34.503Z,3.20
2019-03-12T06:23:38.193Z,3.70
2019-03-12T06:28:41.914Z,4.23
2019-03-12T06:33:52.481Z,4.07
2019-03-12T06:39:18.785Z,3.97
2019-03-12T06:44:31.324Z,4.10
2019-03-12T06:49:47.063Z,4.30
2019-03-12T06:55:01.555Z,4.60
2019-03-12T07:00:30.196Z,3.90
2019-03-12T07:05:51.477Z,4.23
2019-03-12T07:11:07.283Z,4.60
2019-03-12T07:16:22.125Z,4.57
2019-03-12T07:21:43.599Z,4.40
2019-03-12T07:26:53.428Z,3.90
2019-03-12T07:32:16.267Z,4.00
2019-03-12T07:37:25.726Z,3.50
2019-03-12T07:42:44.987Z,3.67
2019-03-12T07:48:00.483Z,3.77
2019-03-12T07:53:13.691Z,3.87
2019-03-12T07:58:35.519Z,4.40
2019-03-12T08:03:45.173Z,3.50
2019-03-12T08:09:06.595Z,3.63
2019-03-12T08:14:29.619Z,3.27
2019-03-12T08:20:01.359Z,3.67
2019-03-12T08:25:14.951Z,4.10
2019-03-12T08:30:41.119Z,4.63
2019-03-12T08:35:51.202Z,3.67
2019-03-12T08:41:05.563Z,3.53
2019-03-12T08:46:34.169Z,3.50
2019-03-12T08:51:49.626Z,4.17
2019-03-12T08:57:01.375Z,4.20
2019-03-12T09:02:18.456Z,3.60
2019-03-12T09:07:47.024Z,3.33
2019-03-12T09:12:58.187Z,2.70
2019-03-12T09:18:37.566Z,3.40
2019-03-12T09:23:54.027Z,2.80
2019-03-12T09:29:13.213Z,2.73
2019-03-12T09:34:38.341Z,2.57
2019-03-12T09:40:01.540Z,2.80
2019-03-12T09:45:13.341Z,2.90
2019-03-12T09:50:26.911Z,2.70
2019-03-12T09:55:48.967Z,2.37
2019-03-12T10:01:10.310Z,2.40
2019-03-12T10:06:35.966Z,2.80
2019-03-12T10:12:07.610Z,2.70
2019-03-12T10:17:22.291Z,2.27
2019-03-12T10:22:46.052Z,2.93
2019-03-12T10:27:58.902Z,2.37
2019-03-12T10:33:19.145Z,2.50
2019-03-12T10:39:20.872Z,2.53
2019-03-12T10:44:30.190Z,2.93
2019-03-12T10:49:37.803Z,3.10
2019-03-12T10:54:39.419Z,2.50
2019-03-12T10:59:43.045Z,2.47
2019-03-12T11:04:46.741Z,2.10
2019-03-12T11:09:50.478Z,2.20
2019-03-12T11:14:54.284Z,2.00
2019-03-12T11:19:58.065Z,1.87
2019-03-12T11:25:01.862Z,2.17
2019-03-12T11:30:06.075Z,2.30
2019-03-12T11:35:09.908Z,2.40
2019-03-12T11:40:15.903Z,2.33
2019-03-12T11:45:20.754Z,2.10
2019-03-12T11:50:25.216Z,1.83
2019-03-12T11:55:29.113Z,2.40
2019-03-12T12:00:41.191Z,1.90
2019-03-12T12:05:44.956Z,2.40
2019-03-12T12:10:48.777Z,1.90
2019-03-12T12:15:52.658Z,2.20
2019-03-12T12:20:56.485Z,1.87
2019-03-12T12:26:00.223Z,1.90
2019-03-12T12:31:04.165Z,2.13
2019-03-12T12:36:07.990Z,2.00
2019-03-12T12:41:11.820Z,1.73
2019-03-12T12:46:15.600Z,2.40
2019-03-12T12:51:19.284Z,2.20
2019-03-12T12:56:22.947Z,2.73
2019-03-12T13:01:26.851Z,2.23
2019-03-12T13:06:30.622Z,2.23
2019-03-12T13:11:34.400Z,2.07
2019-03-12T13:16:38.226Z,2.20
2019-03-12T13:21:41.965Z,2.47
2019-03-12T13:26:45.896Z,2.33
2019-03-12T13:31:49.619Z,2.30
2019-03-12T13:36:53.507Z,2.40
2019-03-12T13:41:57.415Z,2.23
2019-03-12T13:47:01.167Z,2.57
2019-03-12T13:52:04.980Z,2.20
2019-03-12T13:57:09.632Z,2.00
2019-03-12T14:02:13.460Z,2.20
2019-03-12T14:07:17.395Z,2.50
2019-03-12T14:12:21.116Z,2.10
2019-03-12T14:17:24.867Z,2.60
2019-03-12T14:22:28.608Z,2.40
2019-03-12T14:27:32.544Z,2.20
2019-03-12T14:32:36.391Z,2.57
2019-03-12T14:37:40.285Z,2.47
2019-03-12T14:42:44.076Z,2.60
2019-03-12T14:47:47.790Z,2.40
2019-03-12T14:52:58.479Z,2.30
2019-03-12T14:58:02.225Z,3.07
2019-03-12T15:03:06.036Z,2.53
2019-03-12T15:08:11.571Z,2.70
2019-03-12T15:13:34.705Z,2.97
2019-03-12T15:18:38.589Z,3.13
2019-03-12T15:23:42.334Z,2.90
2019-03-12T15:28:46.005Z,2.70
2019-03-12T15:33:49.874Z,3.07
2019-03-12T15:38:53.692Z,2.60
2019-03-12T15:43:57.435Z,2.40
2019-03-12T15:49:01.173Z,3.17
2019-03-12T15:54:04.967Z,3.37
2019-03-12T15:59:08.750Z,3.20
2019-03-12T16:04:12.695Z,3.23
2019-03-12T16:09:16.509Z,3.57
2019-03-12T16:14:20.379Z,3.20
2019-03-12T16:19:24.140Z,3.30
2019-03-12T16:24:27.867Z,3.70
2019-03-12T16:29:31.746Z,3.97
2019-03-12T16:34:35.410Z,3.90
2019-03-12T16:39:39.345Z,3.90
2019-03-12T16:44:43.185Z,4.23
2019-03-12T16:49:47.010Z,4.17
2019-03-12T16:54:51.608Z,4.20
2019-03-12T16:59:55.547Z,3.70
2019-03-12T17:04:59.297Z,3.43
2019-03-12T17:10:03.185Z,4.00
2019-03-12T17:15:08.817Z,3.73
2019-03-12T17:20:12.621Z,3.60
2019-03-12T17:25:16.337Z,3.43
2019-03-12T17:30:20.372Z,3.70
2019-03-12T17:35:25.268Z,3.77
2019-03-12T17:40:29.151Z,3.80
2019-03-12T17:45:32.945Z,3.87
2019-03-12T17:50:36.598Z,4.10
2019-03-12T17:55:40.334Z,4.20
2019-03-12T18:00:44.712Z,4.27
2019-03-12T18:05:48.506Z,4.10
2019-03-12T18:10:52.406Z,4.43
2019-03-12T18:15:56.271Z,4.53
2019-03-12T18:21:00.033Z,3.60
2019-03-12T18:26:05.601Z,3.97
2019-03-12T18:31:09.289Z,4.10
2019-03-12T18:36:13.075Z,4.87
2019-03-12T18:41:16.890Z,4.60
2019-03-12T18:46:20.940Z,4.70
2019-03-12T18:51:24.695Z,4.40
2019-03-12T18:56:28.360Z,4.73
2019-03-12T19:01:32.130Z,5.50
2019-03-12T19:06:35.862Z,5.20
2019-03-12T19:11:59.035Z,6.00
2019-03-12T19:17:03.426Z,5.40
2019-03-12T19:22:07.276Z,6.23
2019-03-12T19:27:11.193Z,6.47
2019-03-12T19:32:29.616Z,6.40
2019-03-12T19:37:33.295Z,6.30
2019-03-12T19:42:37.020Z,7.17
2019-03-12T19:47:40.758Z,7.33
2019-03-12T19:53:03.914Z,8.23
2019-03-12T19:58:07.688Z,8.27
2019-03-12T20:03:15.074Z,9.50
2019-03-12T20:08:19.292Z,8.83
2019-03-12T20:14:05.995Z,8.70
2019-03-12T20:19:45.319Z,9.40
2019-03-12T20:25:29.185Z,9.70
2019-03-12T20:31:13.903Z,10.87
2019-03-12T20:36:56.132Z,10.00
2019-03-12T20:42:35.914Z,9.97
2019-03-12T20:48:27.270Z,10.63
2019-03-12T20:54:17.028Z,11.20
2019-03-12T21:00:16.266Z,11.03
2019-03-12T21:06:00.026Z,11.33
2019-03-12T21:11:35.383Z,11.47
2019-03-12T21:17:19.850Z,10.97
2019-03-12T21:22:47.724Z,11.60
2019-03-12T21:28:30.037Z,12.43
2019-03-12T21:33:33.808Z,11.13
2019-03-12T21:38:37.720Z,11.53
2019-03-12T21:43:41.525Z,12.20
2019-03-12T21:48:45.436Z,11.37
2019-03-12T21:53:49.218Z,11.20
2019-03-12T21:58:53.122Z,11.20
2019-03-12T22:03:56.958Z,10.23
2019-03-12T22:09:00.871Z,9.73
2019-03-12T22:14:04.690Z,10.30
2019-03-12T22:19:08.375Z,10.23
2019-03-12T22:24:14.062Z,9.87
2019-03-12T22:29:17.874Z,9.37
2019-03-12T22:34:21.690Z,8.60
2019-03-12T22:39:25.511Z,8.80
2019-03-12T22:44:29.281Z,9.53
2019-03-12T22:49:32.963Z,8.10
2019-03-12T22:54:36.721Z,8.13
2019-03-12T22:59:40.463Z,8.40
2019-03-12T23:04:44.206Z,8.80
2019-03-12T23:09:47.888Z,7.20
2019-03-12T23:14:51.540Z,8.80
2019-03-12T23:19:55.187Z,8.10
2019-03-12T23:24:58.930Z,7.73
2019-03-12T23:30:02.745Z,7.63
2019-03-12T23:35:06.756Z,7.80
2019-03-12T23:40:10.589Z,6.80
2019-03-12T23:45:14.322Z,7.20
2019-03-12T23:50:18.285Z,7.50
2019-03-12T23:55:21.938Z,7.93
